Glorious Ace — ZGAL — position and weather

sailwx.info

Track history (hours):
 
Tides and Currents Weather Stations Pressure Air Temp Water Temp Dewpoint Dewpoint Depression Visibility Wind Speed Wind Dir Waves Ship Positions

Glorious Ace

Last reported at 2017-Nov-20 00:31 UTC. Time now 2017-Nov-21 10:06 UTC.
Position N 52°52' E 001°42'.

Length 200 m; draft 8.8 m.

Type: Cargo ship. MMSI: 319409000.

Date/timePositionNaut miles runAvg speedWind from/ knotsBaromVisibWave heightAir tempDewpointWater temp
2017-Nov-20 00:31N 52°52' E 001°42'815.4
2017-Nov-20 00:01N 52°57' E 001°33'815.8
2017-Nov-19 23:31N 53°03' E 001°25'816.3
2017-Nov-19 23:01N 53°10' E 001°18'816.3
2017-Nov-19 22:31N 53°17' E 001°11'1116.2
2017-Nov-19 21:50N 53°27' E 001°03'2116.1
2017-Nov-19 20:31N 53°32' E 000°28'016.5
2017-Nov-19 20:29N 53°32' E 000°28'715.4
2017-Nov-19 20:00N 53°33' E 000°15'510.7
2017-Nov-19 19:30N 53°34' E 000°06'815.9
2017-Nov-19 19:01N 53°37' W 000°06'5 9.2
2017-Nov-19 18:30N 53°39' W 000°13'1 2.5
2017-Nov-19 17:59N 53°40' W 000°14'0 0.3
2017-Nov-19 17:29N 53°40' W 000°14'0 0.3
2017-Nov-19 16:59N 53°40' W 000°14'0 0.0
2017-Nov-19 16:29N 53°40' W 000°14'0 0.0
2017-Nov-19 15:59N 53°40' W 000°14'0 0.0
2017-Nov-19 15:29N 53°40' W 000°14'0 0.0
2017-Nov-19 14:59N 53°40' W 000°14'0 0.0
2017-Nov-19 14:29N 53°40' W 000°14'0 0.0
2017-Nov-19 13:59N 53°40' W 000°14'0 0.0
2017-Nov-19 13:29N 53°40' W 000°14'0 0.0
2017-Nov-19 12:59N 53°40' W 000°14'0 0.0
2017-Nov-19 12:29N 53°40' W 000°14'0 0.0
2017-Nov-19 11:59N 53°40' W 000°14'0 0.0
2017-Nov-19 11:29N 53°40' W 000°14'0 0.0
2017-Nov-19 10:59N 53°40' W 000°14'0 0.0
2017-Nov-19 10:29N 53°40' W 000°14'0 0.0
2017-Nov-19 09:59N 53°40' W 000°14'0 0.0
2017-Nov-19 09:29N 53°40' W 000°14'0 0.0
2017-Nov-19 08:59N 53°40' W 000°14'0 0.0
2017-Nov-19 08:29N 53°40' W 000°14'0 0.0
2017-Nov-19 07:59N 53°40' W 000°14'0 0.0
2017-Nov-19 07:29N 53°40' W 000°14'0 0.0
2017-Nov-19 06:59N 53°40' W 000°14'0 0.0
2017-Nov-19 06:29N 53°40' W 000°14'0 0.1
2017-Nov-19 06:00N 53°40' W 000°14'1 2.9
2017-Nov-19 05:30N 53°39' W 000°12'3 5.3
2017-Nov-19 05:00N 53°38' W 000°09'715.0
2017-Nov-19 04:30N 53°35' E 000°03'714.9
2017-Nov-19 04:00N 53°34' E 000°16'510.2
2017-Nov-19 03:29N 53°38' E 000°21'612.9
2017-Nov-19 03:00N 53°42' E 000°29'2 2.1
2017-Nov-19 02:15N 53°41' E 000°32'1 3.0
2017-Nov-19 01:58N 53°41' E 000°31'1 2.2
2017-Nov-19 01:29N 53°40' E 000°29'3 3.4
2017-Nov-19 00:44N 53°43' E 000°32'4 2.1
2017-Nov-18 22:51N 53°45' E 000°37'2 5.7
2017-Nov-18 22:28N 53°43' E 000°35'13 1.0
2017-Nov-18 09:34N 53°53' E 000°49'2 0.3
2017-Nov-18 00:34N 53°53' E 000°46'0 3.0
2017-Nov-18 00:30N 53°53' E 000°46'1 0.2
2017-Nov-17 20:07N 53°53' E 000°48'4 0.3
2017-Nov-17 04:23N 53°49' E 000°44'6 2.1
2017-Nov-17 01:22N 53°43' E 000°43'10 0.6
2017-Nov-16 09:24N 53°53' E 000°39'1 3.1
2017-Nov-16 08:59N 53°54' E 000°40'32 5.0
2017-Nov-16 02:33N 53°25' E 001°05'115.6
2017-Nov-16 02:30N 53°25' E 001°05'816.4
2017-Nov-16 02:00N 53°17' E 001°11'917.1
2017-Nov-16 01:30N 53°10' E 001°20'918.0
2017-Nov-16 01:01N 53°03' E 001°28'918.7
2017-Nov-16 00:31N 52°55' E 001°37'918.7
2017-Nov-16 00:00N 52°50' E 001°50'917.9
2017-Nov-15 23:30N 52°45' E 002°02'917.9
2017-Nov-15 23:00N 52°36' E 002°04'1018.2
2017-Nov-15 22:29N 52°27' E 002°00'917.4
2017-Nov-15 21:57N 52°18' E 001°57'816.9
2017-Nov-15 21:30N 52°11' E 001°55'816.1
2017-Nov-15 21:00N 52°03' E 001°52'815.6
2017-Nov-15 20:30N 51°55' E 001°49'715.0
2017-Nov-15 20:00N 51°48' E 001°49'815.2
2017-Nov-15 19:30N 51°40' E 001°50'714.3
2017-Nov-15 19:00N 51°34' E 001°45'713.5
2017-Nov-15 18:31N 51°31' E 001°35'4 7.2
2017-Nov-15 18:01N 51°31' E 001°29'5 9.4
2017-Nov-15 17:31N 51°34' E 001°24'4 8.8
2017-Nov-15 17:01N 51°36' E 001°17'815.8
2017-Nov-15 16:30N 51°31' E 001°06'917.1
2017-Nov-15 16:01N 51°29' E 000°53'611.6
2017-Nov-15 15:30N 51°27' E 000°44'0 0.4
2017-Nov-15 14:55N 51°26' E 000°44'0 0.0
2017-Nov-15 14:28N 51°26' E 000°44'0 0.0
2017-Nov-15 13:58N 51°26' E 000°44'0 0.0
2017-Nov-15 13:28N 51°26' E 000°44'0 0.0
2017-Nov-15 12:58N 51°26' E 000°44'0 0.0
2017-Nov-15 12:19N 51°26' E 000°44'0 0.0
2017-Nov-15 11:58N 51°26' E 000°44'0 0.0
2017-Nov-15 11:28N 51°26' E 000°44'0 0.0
2017-Nov-15 10:58N 51°26' E 000°44'0 0.0
2017-Nov-15 10:28N 51°26' E 000°44'0 0.0
2017-Nov-15 09:58N 51°26' E 000°44'0 0.0
2017-Nov-15 09:28N 51°26' E 000°44'0 0.0
2017-Nov-15 08:58N 51°26' E 000°44'0 0.0
2017-Nov-15 08:28N 51°26' E 000°44'0 0.0
2017-Nov-15 07:58N 51°26' E 000°44'0 0.0
2017-Nov-15 07:28N 51°26' E 000°44'0 0.0
2017-Nov-15 06:58N 51°26' E 000°44'0 0.0
2017-Nov-15 06:28N 51°26' E 000°44'0 0.0
2017-Nov-15 05:58N 51°26' E 000°44'0 0.0
2017-Nov-15 05:28N 51°26' E 000°44'0 0.0
2017-Nov-15 04:58N 51°26' E 000°44'0 0.0
2017-Nov-15 04:28N 51°26' E 000°44'0 0.0
2017-Nov-15 03:58N 51°26' E 000°44'0 0.0
2017-Nov-15 03:25N 51°26' E 000°44'0 0.0
2017-Nov-15 02:58N 51°26' E 000°44'0 0.0
2017-Nov-15 02:28N 51°26' E 000°44'0 0.0
2017-Nov-15 01:58N 51°26' E 000°44'0 0.0
2017-Nov-15 01:28N 51°26' E 000°44'0 0.0
2017-Nov-15 00:58N 51°26' E 000°44'1 1.5
2017-Nov-15 00:30N 51°27' E 000°45'5 9.1
2017-Nov-15 00:00N 51°29' E 000°51'714.6
2017-Nov-14 23:30N 51°30' E 001°03'714.6
2017-Nov-14 23:01N 51°29' E 001°15'1211.7
2017-Nov-14 22:00N 51°27' E 001°33'510.5
2017-Nov-14 21:30N 51°31' E 001°40'713.5
2017-Nov-14 21:00N 51°33' E 001°50'816.0
2017-Nov-14 20:31N 51°38' E 002°01'916.8
2017-Nov-14 19:57N 51°44' E 002°11'3017.3
2017-Nov-14 18:12N 52°04' E 002°48'419.1
2017-Nov-14 18:00N 52°07' E 002°52'1018.9
2017-Nov-14 17:30N 52°15' E 003°01'1018.9
2017-Nov-14 17:00N 52°22' E 003°12'2118.3
2017-Nov-14 15:52N 52°39' E 003°32'617.7
2017-Nov-14 15:30N 52°44' E 003°38'917.3
2017-Nov-14 15:00N 52°51' E 003°47'816.7
2017-Nov-14 14:30N 52°57' E 003°56'816.6
2017-Nov-14 14:00N 53°02' E 004°07'816.4
2017-Nov-14 13:30N 53°08' E 004°17'815.9
2017-Nov-14 13:00N 53°14' E 004°26'12415.9
2017-Nov-14 05:13N 53°58' E 007°41'516.4
2017-Nov-14 04:56N 53°54' E 007°44'512.7
2017-Nov-14 04:30N 53°52' E 007°53'5 9.8
2017-Nov-14 04:00N 53°51' E 008°01'714.5
2017-Nov-14 03:30N 53°47' E 008°10'816.2
2017-Nov-14 03:01N 53°41' E 008°21'815.0
2017-Nov-14 02:30N 53°36' E 008°30'4 7.4
2017-Nov-14 02:00N 53°33' E 008°34'0 0.6
2017-Nov-14 01:29N 53°34' E 008°34'0 0.7
2017-Nov-14 00:58N 53°34' E 008°34'0 0.0
2017-Nov-14 00:28N 53°34' E 008°34'0 0.0
2017-Nov-13 23:58N 53°34' E 008°34'0 0.0
2017-Nov-13 23:28N 53°34' E 008°34'0 0.0
2017-Nov-13 22:58N 53°34' E 008°34'0 0.0
2017-Nov-13 22:28N 53°34' E 008°34'0 0.0
2017-Nov-13 21:58N 53°34' E 008°34'0 0.0
2017-Nov-13 01:58N 53°34' E 008°34'0 0.0
2017-Nov-13 01:28N 53°34' E 008°34'0 0.0
2017-Nov-13 00:58N 53°34' E 008°34'0 0.0
2017-Nov-13 00:28N 53°34' E 008°34'0 0.0
2017-Nov-12 23:58N 53°34' E 008°34'0 0.0
2017-Nov-12 23:28N 53°34' E 008°34'0 0.0
2017-Nov-12 22:58N 53°34' E 008°34'0 0.0
2017-Nov-12 22:28N 53°34' E 008°34'0 0.0
2017-Nov-12 21:58N 53°34' E 008°34'0 0.0
2017-Nov-12 21:28N 53°34' E 008°34'0 0.0
2017-Nov-12 20:58N 53°34' E 008°34'0 0.0
2017-Nov-12 20:28N 53°34' E 008°34'0 0.0
2017-Nov-12 19:58N 53°34' E 008°34'0 0.0
2017-Nov-12 19:28N 53°34' E 008°34'0 0.0
2017-Nov-12 18:58N 53°34' E 008°34'0 0.0
2017-Nov-12 18:28N 53°34' E 008°34'0 0.0
2017-Nov-12 17:58N 53°34' E 008°34'0 0.0
2017-Nov-12 17:28N 53°34' E 008°34'0 0.0
2017-Nov-12 16:58N 53°34' E 008°34'0 0.7
2017-Nov-12 16:30N 53°34' E 008°34'0 0.1
2017-Nov-12 16:00N 53°34' E 008°34'1 1.1
2017-Nov-12 15:31N 53°34' E 008°33'611.4
2017-Nov-12 15:01N 53°38' E 008°26'917.2
2017-Nov-12 14:30N 53°44' E 008°15'1616.3
2017-Nov-12 13:30N 53°52' E 007°52'510.7
2017-Nov-12 13:00N 53°53' E 007°43'510.1
2017-Nov-12 12:30N 53°54' E 007°34'8216.4
2017-Nov-12 07:31N 53°34' E 005°20'016.0
2017-Nov-12 07:29N 53°33' E 005°20'816.1
2017-Nov-12 07:00N 53°31' E 005°07'816.4
2017-Nov-12 06:30N 53°27' E 004°55'1015.6
2017-Nov-12 05:50N 53°21' E 004°41'516.1
2017-Nov-12 05:30N 53°16' E 004°37'816.0
2017-Nov-12 05:00N 53°09' E 004°31'815.7
2017-Nov-12 04:31N 53°02' E 004°24'815.6
2017-Nov-12 04:00N 52°55' E 004°19'815.7
2017-Nov-12 03:31N 52°48' E 004°13'815.4
2017-Nov-12 03:01N 52°42' E 004°05'815.7
2017-Nov-12 02:30N 52°37' E 003°55'815.8
2017-Nov-12 02:01N 52°32' E 003°46'816.0
2017-Nov-12 01:30N 52°26' E 003°37'816.0
2017-Nov-12 01:00N 52°20' E 003°28'4416.8
2017-Nov-11 22:24N 51°48' E 002°40'716.7
2017-Nov-11 21:58N 51°41' E 002°42'816.5
2017-Nov-11 21:31N 51°33' E 002°42'816.4
2017-Nov-11 21:00N 51°25' E 002°43'4 8.8
2017-Nov-11 20:30N 51°25' E 002°50'815.6
2017-Nov-11 20:00N 51°25' E 003°02'612.0
2017-Nov-11 19:30N 51°22' E 003°11'2 4.6
2017-Nov-11 19:00N 51°20' E 003°13'0 0.8
2017-Nov-11 18:31N 51°20' E 003°13'1 1.1
2017-Nov-11 18:00N 51°19' E 003°13'0 0.0
2017-Nov-11 17:30N 51°19' E 003°13'0 0.0
2017-Nov-11 17:00N 51°19' E 003°13'0 0.0
2017-Nov-11 16:30N 51°19' E 003°13'0 0.0
2017-Nov-11 16:01N 51°19' E 003°13'0 0.0
2017-Nov-11 15:30N 51°19' E 003°13'0 0.0
2017-Nov-11 15:00N 51°19' E 003°13'0 0.0
2017-Nov-11 14:30N 51°19' E 003°13'0 0.0
2017-Nov-11 14:00N 51°19' E 003°13'0 0.0
2017-Nov-11 13:30N 51°19' E 003°13'0 0.0
2017-Nov-11 13:00N 51°19' E 003°13'0 0.0
2017-Nov-11 12:30N 51°19' E 003°13'0 0.0
2017-Nov-11 12:00N 51°19' E 003°13'0 0.0
2017-Nov-11 11:30N 51°19' E 003°13'0 0.0
2017-Nov-11 11:00N 51°19' E 003°13'0 0.0
2017-Nov-11 10:30N 51°19' E 003°13'0 0.0
2017-Nov-11 10:00N 51°19' E 003°13'0 0.0
2017-Nov-11 09:30N 51°19' E 003°13'0 0.0
2017-Nov-11 09:00N 51°19' E 003°13'1 1.0
2017-Nov-11 08:30N 51°19' E 003°13'1 2.1
2017-Nov-11 08:00N 51°20' E 003°13'0 0.0
2017-Nov-11 07:30N 51°20' E 003°13'2 4.5
2017-Nov-11 07:01N 51°22' E 003°11'2 3.6
2017-Nov-11 06:30N 51°24' E 003°10'2 4.7
2017-Nov-11 06:00N 51°24' E 003°14'3 6.6
2017-Nov-11 05:30N 51°24' E 003°19'3 6.5
2017-Nov-11 05:00N 51°25' E 003°24'4 8.8
2017-Nov-11 04:30N 51°25' E 003°31'3 5.9
2017-Nov-11 04:00N 51°26' E 003°36'4 9.0
2017-Nov-11 03:30N 51°24' E 003°43'713.8
2017-Nov-11 03:00N 51°21' E 003°53'713.9
2017-Nov-11 02:30N 51°26' E 004°00'612.9
2017-Nov-11 02:00N 51°23' E 004°09'510.0
2017-Nov-11 01:30N 51°21' E 004°16'4 9.0
2017-Nov-11 01:00N 51°16' E 004°19'1 2.4
2017-Nov-11 00:31N 51°16' E 004°17'0 0.0
2017-Nov-11 00:01N 51°16' E 004°17'0 0.0
2017-Nov-10 23:30N 51°16' E 004°17'1 1.8
2017-Nov-10 23:00N 51°16' E 004°15'1 2.6
2017-Nov-10 22:30N 51°16' E 004°13'0 0.0
2017-Nov-10 22:00N 51°16' E 004°13'0 0.0
2017-Nov-10 21:30N 51°16' E 004°13'0 0.0
2017-Nov-10 21:00N 51°16' E 004°13'0 0.0
2017-Nov-10 20:30N 51°16' E 004°13'0 0.0
2017-Nov-10 20:00N 51°16' E 004°13'0 0.0
2017-Nov-10 19:30N 51°16' E 004°13'0 0.0
2017-Nov-10 19:00N 51°16' E 004°13'0 0.0
2017-Nov-10 18:30N 51°16' E 004°13'0 0.0
2017-Nov-10 18:00N 51°16' E 004°13'0 0.0
2017-Nov-10 17:30N 51°16' E 004°13'0 0.0
2017-Nov-10 17:00N 51°16' E 004°13'0 0.0
2017-Nov-10 16:30N 51°16' E 004°13'0 0.0
2017-Nov-10 16:00N 51°16' E 004°13'0 0.0
2017-Nov-10 15:30N 51°16' E 004°13'0 0.0
2017-Nov-10 15:00N 51°16' E 004°13'0 0.0
2017-Nov-10 14:30N 51°16' E 004°13'0 0.0
2017-Nov-10 14:00N 51°16' E 004°13'0 0.0
2017-Nov-10 13:30N 51°16' E 004°13'0 0.0
2017-Nov-10 13:00N 51°16' E 004°13'0 0.0
2017-Nov-10 12:30N 51°16' E 004°13'0 0.0
2017-Nov-10 12:00N 51°16' E 004°13'0 0.0
2017-Nov-10 11:30N 51°16' E 004°13'0 0.0
2017-Nov-10 11:00N 51°16' E 004°13'0 0.0
2017-Nov-10 10:30N 51°16' E 004°13'0 0.0
2017-Nov-10 10:00N 51°16' E 004°13'0 0.0
2017-Nov-10 09:30N 51°16' E 004°13'0 0.0
2017-Nov-10 09:00N 51°16' E 004°13'0 0.0
2017-Nov-10 08:30N 51°16' E 004°13'0 0.0
2017-Nov-10 08:00N 51°16' E 004°13'0 0.0
2017-Nov-10 07:30N 51°16' E 004°13'0 0.0
2017-Nov-10 07:00N 51°16' E 004°13'0 0.0
2017-Nov-10 06:30N 51°16' E 004°13'0 0.0
2017-Nov-10 06:00N 51°16' E 004°13'0 0.0
2017-Nov-10 05:30N 51°16' E 004°13'0 0.0
2017-Nov-10 05:00N 51°16' E 004°13'0 0.0
2017-Nov-10 04:30N 51°16' E 004°13'0 0.0
2017-Nov-10 04:00N 51°16' E 004°13'0 0.8
2017-Nov-10 03:30N 51°17' E 004°14'1 1.1
2017-Nov-10 03:00N 51°17' E 004°15'0 0.0
2017-Nov-10 02:30N 51°17' E 004°15'2 3.1
2017-Nov-10 02:00N 51°18' E 004°16'4 7.3
2017-Nov-10 01:30N 51°21' E 004°14'4 9.0
2017-Nov-10 01:00N 51°22' E 004°07'612.1
2017-Nov-10 00:31N 51°26' E 003°60'  
Track history (hours):
 
Tides and Currents Weather Stations Pressure Air Temp Water Temp Dewpoint Dewpoint Depression Visibility Wind Speed Wind Dir Waves Ship Positions

Glorious Ace

Last reported at 2017-Nov-20 00:31 UTC. Time now 2017-Nov-21 10:06 UTC.
Position N 52°52' E 001°42'.

Length 200 m; draft 8.8 m.

Type: Cargo ship. MMSI: 319409000.

Date/timePositionNaut miles runAvg speedWind from/ knotsBaromVisibWave heightAir tempDewpointWater temp
2017-Nov-20 00:31N 52°52' E 001°42'815.4
2017-Nov-20 00:01N 52°57' E 001°33'815.8
2017-Nov-19 23:31N 53°03' E 001°25'816.3
2017-Nov-19 23:01N 53°10' E 001°18'816.3
2017-Nov-19 22:31N 53°17' E 001°11'1116.2
2017-Nov-19 21:50N 53°27' E 001°03'2116.1
2017-Nov-19 20:31N 53°32' E 000°28'016.5
2017-Nov-19 20:29N 53°32' E 000°28'715.4
2017-Nov-19 20:00N 53°33' E 000°15'510.7
2017-Nov-19 19:30N 53°34' E 000°06'815.9
2017-Nov-19 19:01N 53°37' W 000°06'5 9.2
2017-Nov-19 18:30N 53°39' W 000°13'1 2.5
2017-Nov-19 17:59N 53°40' W 000°14'0 0.3
2017-Nov-19 17:29N 53°40' W 000°14'0 0.3
2017-Nov-19 16:59N 53°40' W 000°14'0 0.0
2017-Nov-19 16:29N 53°40' W 000°14'0 0.0
2017-Nov-19 15:59N 53°40' W 000°14'0 0.0
2017-Nov-19 15:29N 53°40' W 000°14'0 0.0
2017-Nov-19 14:59N 53°40' W 000°14'0 0.0
2017-Nov-19 14:29N 53°40' W 000°14'0 0.0
2017-Nov-19 13:59N 53°40' W 000°14'0 0.0
2017-Nov-19 13:29N 53°40' W 000°14'0 0.0
2017-Nov-19 12:59N 53°40' W 000°14'0 0.0
2017-Nov-19 12:29N 53°40' W 000°14'0 0.0
2017-Nov-19 11:59N 53°40' W 000°14'0 0.0
2017-Nov-19 11:29N 53°40' W 000°14'0 0.0
2017-Nov-19 10:59N 53°40' W 000°14'0 0.0
2017-Nov-19 10:29N 53°40' W 000°14'0 0.0
2017-Nov-19 09:59N 53°40' W 000°14'0 0.0
2017-Nov-19 09:29N 53°40' W 000°14'0 0.0
2017-Nov-19 08:59N 53°40' W 000°14'0 0.0
2017-Nov-19 08:29N 53°40' W 000°14'0 0.0
2017-Nov-19 07:59N 53°40' W 000°14'0 0.0
2017-Nov-19 07:29N 53°40' W 000°14'0 0.0
2017-Nov-19 06:59N 53°40' W 000°14'0 0.0
2017-Nov-19 06:29N 53°40' W 000°14'0 0.1
2017-Nov-19 06:00N 53°40' W 000°14'1 2.9
2017-Nov-19 05:30N 53°39' W 000°12'3 5.3
2017-Nov-19 05:00N 53°38' W 000°09'715.0
2017-Nov-19 04:30N 53°35' E 000°03'714.9
2017-Nov-19 04:00N 53°34' E 000°16'510.2
2017-Nov-19 03:29N 53°38' E 000°21'612.9
2017-Nov-19 03:00N 53°42' E 000°29'2 2.1
2017-Nov-19 02:15N 53°41' E 000°32'1 3.0
2017-Nov-19 01:58N 53°41' E 000°31'1 2.2
2017-Nov-19 01:29N 53°40' E 000°29'3 3.4
2017-Nov-19 00:44N 53°43' E 000°32'4 2.1
2017-Nov-18 22:51N 53°45' E 000°37'2 5.7
2017-Nov-18 22:28N 53°43' E 000°35'13 1.0
2017-Nov-18 09:34N 53°53' E 000°49'2 0.3
2017-Nov-18 00:34N 53°53' E 000°46'0 3.0
2017-Nov-18 00:30N 53°53' E 000°46'1 0.2
2017-Nov-17 20:07N 53°53' E 000°48'4 0.3
2017-Nov-17 04:23N 53°49' E 000°44'6 2.1
2017-Nov-17 01:22N 53°43' E 000°43'10 0.6
2017-Nov-16 09:24N 53°53' E 000°39'1 3.1
2017-Nov-16 08:59N 53°54' E 000°40'32 5.0
2017-Nov-16 02:33N 53°25' E 001°05'115.6
2017-Nov-16 02:30N 53°25' E 001°05'816.4
2017-Nov-16 02:00N 53°17' E 001°11'917.1
2017-Nov-16 01:30N 53°10' E 001°20'918.0
2017-Nov-16 01:01N 53°03' E 001°28'918.7
2017-Nov-16 00:31N 52°55' E 001°37'918.7
2017-Nov-16 00:00N 52°50' E 001°50'917.9
2017-Nov-15 23:30N 52°45' E 002°02'917.9
2017-Nov-15 23:00N 52°36' E 002°04'1018.2
2017-Nov-15 22:29N 52°27' E 002°00'917.4
2017-Nov-15 21:57N 52°18' E 001°57'816.9
2017-Nov-15 21:30N 52°11' E 001°55'816.1
2017-Nov-15 21:00N 52°03' E 001°52'815.6
2017-Nov-15 20:30N 51°55' E 001°49'715.0
2017-Nov-15 20:00N 51°48' E 001°49'815.2
2017-Nov-15 19:30N 51°40' E 001°50'714.3
2017-Nov-15 19:00N 51°34' E 001°45'713.5
2017-Nov-15 18:31N 51°31' E 001°35'4 7.2
2017-Nov-15 18:01N 51°31' E 001°29'5 9.4
2017-Nov-15 17:31N 51°34' E 001°24'4 8.8
2017-Nov-15 17:01N 51°36' E 001°17'815.8
2017-Nov-15 16:30N 51°31' E 001°06'917.1
2017-Nov-15 16:01N 51°29' E 000°53'611.6
2017-Nov-15 15:30N 51°27' E 000°44'0 0.4
2017-Nov-15 14:55N 51°26' E 000°44'0 0.0
2017-Nov-15 14:28N 51°26' E 000°44'0 0.0
2017-Nov-15 13:58N 51°26' E 000°44'0 0.0
2017-Nov-15 13:28N 51°26' E 000°44'0 0.0
2017-Nov-15 12:58N 51°26' E 000°44'0 0.0
2017-Nov-15 12:19N 51°26' E 000°44'0 0.0
2017-Nov-15 11:58N 51°26' E 000°44'0 0.0
2017-Nov-15 11:28N 51°26' E 000°44'0 0.0
2017-Nov-15 10:58N 51°26' E 000°44'0 0.0
2017-Nov-15 10:28N 51°26' E 000°44'0 0.0
2017-Nov-15 09:58N 51°26' E 000°44'0 0.0
2017-Nov-15 09:28N 51°26' E 000°44'0 0.0
2017-Nov-15 08:58N 51°26' E 000°44'0 0.0
2017-Nov-15 08:28N 51°26' E 000°44'0 0.0
2017-Nov-15 07:58N 51°26' E 000°44'0 0.0
2017-Nov-15 07:28N 51°26' E 000°44'0 0.0
2017-Nov-15 06:58N 51°26' E 000°44'0 0.0
2017-Nov-15 06:28N 51°26' E 000°44'0 0.0
2017-Nov-15 05:58N 51°26' E 000°44'0 0.0
2017-Nov-15 05:28N 51°26' E 000°44'0 0.0
2017-Nov-15 04:58N 51°26' E 000°44'0 0.0
2017-Nov-15 04:28N 51°26' E 000°44'0 0.0
2017-Nov-15 03:58N 51°26' E 000°44'0 0.0
2017-Nov-15 03:25N 51°26' E 000°44'0 0.0
2017-Nov-15 02:58N 51°26' E 000°44'0 0.0
2017-Nov-15 02:28N 51°26' E 000°44'0 0.0
2017-Nov-15 01:58N 51°26' E 000°44'0 0.0
2017-Nov-15 01:28N 51°26' E 000°44'0 0.0
2017-Nov-15 00:58N 51°26' E 000°44'1 1.5
2017-Nov-15 00:30N 51°27' E 000°45'5 9.1
2017-Nov-15 00:00N 51°29' E 000°51'714.6
2017-Nov-14 23:30N 51°30' E 001°03'714.6
2017-Nov-14 23:01N 51°29' E 001°15'1211.7
2017-Nov-14 22:00N 51°27' E 001°33'510.5
2017-Nov-14 21:30N 51°31' E 001°40'713.5
2017-Nov-14 21:00N 51°33' E 001°50'816.0
2017-Nov-14 20:31N 51°38' E 002°01'916.8
2017-Nov-14 19:57N 51°44' E 002°11'3017.3
2017-Nov-14 18:12N 52°04' E 002°48'419.1
2017-Nov-14 18:00N 52°07' E 002°52'1018.9
2017-Nov-14 17:30N 52°15' E 003°01'1018.9
2017-Nov-14 17:00N 52°22' E 003°12'2118.3
2017-Nov-14 15:52N 52°39' E 003°32'617.7
2017-Nov-14 15:30N 52°44' E 003°38'917.3
2017-Nov-14 15:00N 52°51' E 003°47'816.7
2017-Nov-14 14:30N 52°57' E 003°56'816.6
2017-Nov-14 14:00N 53°02' E 004°07'816.4
2017-Nov-14 13:30N 53°08' E 004°17'815.9
2017-Nov-14 13:00N 53°14' E 004°26'12415.9
2017-Nov-14 05:13N 53°58' E 007°41'516.4
2017-Nov-14 04:56N 53°54' E 007°44'512.7
2017-Nov-14 04:30N 53°52' E 007°53'5 9.8
2017-Nov-14 04:00N 53°51' E 008°01'714.5
2017-Nov-14 03:30N 53°47' E 008°10'816.2
2017-Nov-14 03:01N 53°41' E 008°21'815.0
2017-Nov-14 02:30N 53°36' E 008°30'4 7.4
2017-Nov-14 02:00N 53°33' E 008°34'0 0.6
2017-Nov-14 01:29N 53°34' E 008°34'0 0.7
2017-Nov-14 00:58N 53°34' E 008°34'0 0.0
2017-Nov-14 00:28N 53°34' E 008°34'0 0.0
2017-Nov-13 23:58N 53°34' E 008°34'0 0.0
2017-Nov-13 23:28N 53°34' E 008°34'0 0.0
2017-Nov-13 22:58N 53°34' E 008°34'0 0.0
2017-Nov-13 22:28N 53°34' E 008°34'0 0.0
2017-Nov-13 21:58N 53°34' E 008°34'0 0.0
2017-Nov-13 01:58N 53°34' E 008°34'0 0.0
2017-Nov-13 01:28N 53°34' E 008°34'0 0.0
2017-Nov-13 00:58N 53°34' E 008°34'0 0.0
2017-Nov-13 00:28N 53°34' E 008°34'0 0.0
2017-Nov-12 23:58N 53°34' E 008°34'0 0.0
2017-Nov-12 23:28N 53°34' E 008°34'0 0.0
2017-Nov-12 22:58N 53°34' E 008°34'0 0.0
2017-Nov-12 22:28N 53°34' E 008°34'0 0.0
2017-Nov-12 21:58N 53°34' E 008°34'0 0.0
2017-Nov-12 21:28N 53°34' E 008°34'0 0.0
2017-Nov-12 20:58N 53°34' E 008°34'0 0.0
2017-Nov-12 20:28N 53°34' E 008°34'0 0.0
2017-Nov-12 19:58N 53°34' E 008°34'0 0.0
2017-Nov-12 19:28N 53°34' E 008°34'0 0.0
2017-Nov-12 18:58N 53°34' E 008°34'0 0.0
2017-Nov-12 18:28N 53°34' E 008°34'0 0.0
2017-Nov-12 17:58N 53°34' E 008°34'0 0.0
2017-Nov-12 17:28N 53°34' E 008°34'0 0.0
2017-Nov-12 16:58N 53°34' E 008°34'0 0.7
2017-Nov-12 16:30N 53°34' E 008°34'0 0.1
2017-Nov-12 16:00N 53°34' E 008°34'1 1.1
2017-Nov-12 15:31N 53°34' E 008°33'611.4
2017-Nov-12 15:01N 53°38' E 008°26'917.2
2017-Nov-12 14:30N 53°44' E 008°15'1616.3
2017-Nov-12 13:30N 53°52' E 007°52'510.7
2017-Nov-12 13:00N 53°53' E 007°43'510.1
2017-Nov-12 12:30N 53°54' E 007°34'8216.4
2017-Nov-12 07:31N 53°34' E 005°20'016.0
2017-Nov-12 07:29N 53°33' E 005°20'816.1
2017-Nov-12 07:00N 53°31' E 005°07'816.4
2017-Nov-12 06:30N 53°27' E 004°55'1015.6
2017-Nov-12 05:50N 53°21' E 004°41'516.1
2017-Nov-12 05:30N 53°16' E 004°37'816.0
2017-Nov-12 05:00N 53°09' E 004°31'815.7
2017-Nov-12 04:31N 53°02' E 004°24'815.6
2017-Nov-12 04:00N 52°55' E 004°19'815.7
2017-Nov-12 03:31N 52°48' E 004°13'815.4
2017-Nov-12 03:01N 52°42' E 004°05'815.7
2017-Nov-12 02:30N 52°37' E 003°55'815.8
2017-Nov-12 02:01N 52°32' E 003°46'816.0
2017-Nov-12 01:30N 52°26' E 003°37'816.0
2017-Nov-12 01:00N 52°20' E 003°28'4416.8
2017-Nov-11 22:24N 51°48' E 002°40'716.7
2017-Nov-11 21:58N 51°41' E 002°42'816.5
2017-Nov-11 21:31N 51°33' E 002°42'816.4
2017-Nov-11 21:00N 51°25' E 002°43'4 8.8
2017-Nov-11 20:30N 51°25' E 002°50'815.6
2017-Nov-11 20:00N 51°25' E 003°02'612.0
2017-Nov-11 19:30N 51°22' E 003°11'2 4.6
2017-Nov-11 19:00N 51°20' E 003°13'0 0.8
2017-Nov-11 18:31N 51°20' E 003°13'1 1.1
2017-Nov-11 18:00N 51°19' E 003°13'0 0.0
2017-Nov-11 17:30N 51°19' E 003°13'0 0.0
2017-Nov-11 17:00N 51°19' E 003°13'0 0.0
2017-Nov-11 16:30N 51°19' E 003°13'0 0.0
2017-Nov-11 16:01N 51°19' E 003°13'0 0.0
2017-Nov-11 15:30N 51°19' E 003°13'0 0.0
2017-Nov-11 15:00N 51°19' E 003°13'0 0.0
2017-Nov-11 14:30N 51°19' E 003°13'0 0.0
2017-Nov-11 14:00N 51°19' E 003°13'0 0.0
2017-Nov-11 13:30N 51°19' E 003°13'0 0.0
2017-Nov-11 13:00N 51°19' E 003°13'0 0.0
2017-Nov-11 12:30N 51°19' E 003°13'0 0.0
2017-Nov-11 12:00N 51°19' E 003°13'0 0.0
2017-Nov-11 11:30N 51°19' E 003°13'0 0.0
2017-Nov-11 11:00N 51°19' E 003°13'0 0.0
2017-Nov-11 10:30N 51°19' E 003°13'0 0.0
2017-Nov-11 10:00N 51°19' E 003°13'0 0.0
2017-Nov-11 09:30N 51°19' E 003°13'0 0.0
2017-Nov-11 09:00N 51°19' E 003°13'1 1.0
2017-Nov-11 08:30N 51°19' E 003°13'1 2.1
2017-Nov-11 08:00N 51°20' E 003°13'0 0.0
2017-Nov-11 07:30N 51°20' E 003°13'2 4.5
2017-Nov-11 07:01N 51°22' E 003°11'2 3.6
2017-Nov-11 06:30N 51°24' E 003°10'2 4.7
2017-Nov-11 06:00N 51°24' E 003°14'3 6.6
2017-Nov-11 05:30N 51°24' E 003°19'3 6.5
2017-Nov-11 05:00N 51°25' E 003°24'4 8.8
2017-Nov-11 04:30N 51°25' E 003°31'3 5.9
2017-Nov-11 04:00N 51°26' E 003°36'4 9.0
2017-Nov-11 03:30N 51°24' E 003°43'713.8
2017-Nov-11 03:00N 51°21' E 003°53'713.9
2017-Nov-11 02:30N 51°26' E 004°00'612.9
2017-Nov-11 02:00N 51°23' E 004°09'510.0
2017-Nov-11 01:30N 51°21' E 004°16'4 9.0
2017-Nov-11 01:00N 51°16' E 004°19'1 2.4
2017-Nov-11 00:31N 51°16' E 004°17'0 0.0
2017-Nov-11 00:01N 51°16' E 004°17'0 0.0
2017-Nov-10 23:30N 51°16' E 004°17'1 1.8
2017-Nov-10 23:00N 51°16' E 004°15'1 2.6
2017-Nov-10 22:30N 51°16' E 004°13'0 0.0
2017-Nov-10 22:00N 51°16' E 004°13'0 0.0
2017-Nov-10 21:30N 51°16' E 004°13'0 0.0
2017-Nov-10 21:00N 51°16' E 004°13'0 0.0
2017-Nov-10 20:30N 51°16' E 004°13'0 0.0
2017-Nov-10 20:00N 51°16' E 004°13'0 0.0
2017-Nov-10 19:30N 51°16' E 004°13'0 0.0
2017-Nov-10 19:00N 51°16' E 004°13'0 0.0
2017-Nov-10 18:30N 51°16' E 004°13'0 0.0
2017-Nov-10 18:00N 51°16' E 004°13'0 0.0
2017-Nov-10 17:30N 51°16' E 004°13'0 0.0
2017-Nov-10 17:00N 51°16' E 004°13'0 0.0
2017-Nov-10 16:30N 51°16' E 004°13'0 0.0
2017-Nov-10 16:00N 51°16' E 004°13'0 0.0
2017-Nov-10 15:30N 51°16' E 004°13'0 0.0
2017-Nov-10 15:00N 51°16' E 004°13'0 0.0
2017-Nov-10 14:30N 51°16' E 004°13'0 0.0
2017-Nov-10 14:00N 51°16' E 004°13'0 0.0
2017-Nov-10 13:30N 51°16' E 004°13'0 0.0
2017-Nov-10 13:00N 51°16' E 004°13'0 0.0
2017-Nov-10 12:30N 51°16' E 004°13'0 0.0
2017-Nov-10 12:00N 51°16' E 004°13'0 0.0
2017-Nov-10 11:30N 51°16' E 004°13'0 0.0
2017-Nov-10 11:00N 51°16' E 004°13'0 0.0
2017-Nov-10 10:30N 51°16' E 004°13'0 0.0
2017-Nov-10 10:00N 51°16' E 004°13'0 0.0
2017-Nov-10 09:30N 51°16' E 004°13'0 0.0
2017-Nov-10 09:00N 51°16' E 004°13'0 0.0
2017-Nov-10 08:30N 51°16' E 004°13'0 0.0
2017-Nov-10 08:00N 51°16' E 004°13'0 0.0
2017-Nov-10 07:30N 51°16' E 004°13'0 0.0
2017-Nov-10 07:00N 51°16' E 004°13'0 0.0
2017-Nov-10 06:30N 51°16' E 004°13'0 0.0
2017-Nov-10 06:00N 51°16' E 004°13'0 0.0
2017-Nov-10 05:30N 51°16' E 004°13'0 0.0
2017-Nov-10 05:00N 51°16' E 004°13'0 0.0
2017-Nov-10 04:30N 51°16' E 004°13'0 0.0
2017-Nov-10 04:00N 51°16' E 004°13'0 0.8
2017-Nov-10 03:30N 51°17' E 004°14'1 1.1
2017-Nov-10 03:00N 51°17' E 004°15'0 0.0
2017-Nov-10 02:30N 51°17' E 004°15'2 3.1
2017-Nov-10 02:00N 51°18' E 004°16'4 7.3
2017-Nov-10 01:30N 51°21' E 004°14'4 9.0
2017-Nov-10 01:00N 51°22' E 004°07'612.1
2017-Nov-10 00:31N 51°26' E 003°60'  

Dump ship's entire track history